createdAt,value
2023-04-16T00:00:54.848Z,91489.14
2023-04-16T00:03:33.661Z,91491.04
2023-04-16T00:06:02.310Z,91489.64
2023-04-16T00:08:30.647Z,91491.29
2023-04-16T00:10:58.888Z,91490.70
2023-04-16T00:13:28.040Z,91495.70
2023-04-16T00:15:56.464Z,91495.13
2023-04-16T00:18:24.822Z,91494.52
2023-04-16T00:20:53.646Z,91497.54
2023-04-16T00:23:21.995Z,91504.21
2023-04-16T00:25:50.308Z,91500.90
2023-04-16T00:28:18.544Z,91502.83
2023-04-16T00:30:47.065Z,91505.91
2023-04-16T00:33:16.111Z,91510.33
2023-04-16T00:35:47.946Z,91511.29
2023-04-16T00:38:16.820Z,91512.61
2023-04-16T00:40:45.261Z,91510.69
2023-04-16T00:43:20.733Z,91513.01
2023-04-16T00:45:49.210Z,91514.91
2023-04-16T00:48:17.764Z,91515.70
2023-04-16T00:50:46.944Z,91518.65
2023-04-16T00:53:15.423Z,91518.44
2023-04-16T00:55:43.967Z,91520.96
2023-04-16T00:58:12.168Z,91521.23
2023-04-16T01:00:40.482Z,91520.98
2023-04-16T01:03:09.376Z,91515.60
2023-04-16T01:05:37.855Z,91519.16
2023-04-16T01:08:06.373Z,91513.29
2023-04-16T01:10:34.747Z,91515.13
2023-04-16T01:13:02.993Z,91512.41
2023-04-16T01:15:31.214Z,91512.23
2023-04-16T01:17:59.582Z,91512.67
2023-04-16T01:20:27.810Z,91513.02
2023-04-16T01:22:56.036Z,91513.59
2023-04-16T01:25:24.512Z,91516.54
2023-04-16T01:27:55.026Z,91517.94
2023-04-16T01:30:23.178Z,91516.59
2023-04-16T01:33:14.651Z,91515.27
2023-04-16T01:35:42.979Z,91512.10
2023-04-16T01:38:11.282Z,91510.81
2023-04-16T01:40:39.625Z,91512.03
2023-04-16T01:43:08.118Z,91511.02
2023-04-16T01:45:36.516Z,91511.75
2023-04-16T01:48:04.977Z,91513.80
2023-04-16T01:50:33.566Z,91512.63
2023-04-16T01:53:05.093Z,91516.14
2023-04-16T01:55:34.040Z,91519.21
2023-04-16T01:58:02.330Z,91513.07
2023-04-16T02:00:33.714Z,91510.28
2023-04-16T02:03:02.440Z,91511.13
2023-04-16T02:05:31.056Z,91510.56
2023-04-16T02:07:59.452Z,91508.95
2023-04-16T02:10:27.684Z,91513.70
2023-04-16T02:12:56.685Z,91508.27
2023-04-16T02:15:25.512Z,91512.38
2023-04-16T02:17:57.125Z,91509.00
2023-04-16T02:20:26.395Z,91512.20
2023-04-16T02:22:57.183Z,91511.69
2023-04-16T02:25:25.598Z,91510.54
2023-04-16T02:27:55.380Z,91508.23
2023-04-16T02:30:35.052Z,91503.66
2023-04-16T02:33:05.816Z,91502.66
2023-04-16T02:35:35.017Z,91505.10
2023-04-16T02:38:04.393Z,91510.73
2023-04-16T02:40:33.049Z,91510.63
2023-04-16T02:43:01.406Z,91512.80
2023-04-16T02:45:31.727Z,91511.45
2023-04-16T02:48:00.830Z,91510.87
2023-04-16T02:50:29.126Z,91516.00
2023-04-16T02:52:57.625Z,91520.27
2023-04-16T02:55:25.965Z,91517.61
2023-04-16T02:57:54.307Z,91520.16
2023-04-16T03:00:22.830Z,91521.55
2023-04-16T03:02:51.306Z,91526.14
2023-04-16T03:05:19.894Z,91527.85
2023-04-16T03:07:48.291Z,91533.73
2023-04-16T03:10:17.293Z,91533.14
2023-04-16T03:12:45.765Z,91537.81
2023-04-16T03:15:14.042Z,91537.11
2023-04-16T03:17:42.314Z,91542.74
2023-04-16T03:20:11.219Z,91547.40
2023-04-16T03:22:39.721Z,91546.37
2023-04-16T03:25:08.285Z,91549.67
2023-04-16T03:27:36.510Z,91549.54
2023-04-16T03:30:05.891Z,91546.42
2023-04-16T03:32:35.007Z,91547.33
2023-04-16T03:35:04.411Z,91549.94
2023-04-16T03:37:33.008Z,91558.84
2023-04-16T03:40:01.442Z,91563.60
2023-04-16T03:42:29.739Z,91563.83
2023-04-16T03:44:58.200Z,91563.15
2023-04-16T03:47:26.587Z,91569.51
2023-04-16T03:49:56.952Z,91569.84
2023-04-16T03:52:25.290Z,91569.05
2023-04-16T03:54:53.874Z,91564.59
2023-04-16T03:57:27.501Z,91561.98
2023-04-16T03:59:58.891Z,91562.27
2023-04-16T04:02:28.849Z,91560.76
2023-04-16T04:04:57.248Z,91559.26
2023-04-16T04:07:25.590Z,91561.02
2023-04-16T04:09:54.033Z,91558.91
2023-04-16T04:12:22.448Z,91561.08
2023-04-16T04:14:50.915Z,91558.00
2023-04-16T04:17:19.155Z,91556.96
2023-04-16T04:20:00.084Z,91561.20
2023-04-16T04:22:29.696Z,91558.35
2023-04-16T04:24:58.141Z,91557.86
2023-04-16T04:27:28.091Z,91562.33
2023-04-16T04:29:56.857Z,91565.23
2023-04-16T04:32:25.859Z,91566.89
2023-04-16T04:34:54.203Z,91564.84
2023-04-16T04:37:22.433Z,91567.20
2023-04-16T04:39:50.761Z,91569.21
2023-04-16T04:42:19.646Z,91570.56
2023-04-16T04:44:48.319Z,91573.66
2023-04-16T04:47:16.659Z,91572.59
2023-04-16T04:49:44.928Z,91571.57
2023-04-16T04:52:13.365Z,91574.69
2023-04-16T04:54:42.471Z,91576.80
2023-04-16T04:57:10.768Z,91578.13
2023-04-16T04:59:39.306Z,91588.07
2023-04-16T05:02:07.906Z,91594.55
2023-04-16T05:04:36.255Z,91599.89
2023-04-16T05:07:04.564Z,91601.86
2023-04-16T05:09:33.063Z,91600.71
2023-04-16T05:12:01.255Z,91603.09
2023-04-16T05:14:29.540Z,91602.86
2023-04-16T05:16:57.891Z,91602.50
2023-04-16T05:19:26.452Z,91602.06
2023-04-16T05:21:54.677Z,91603.45
2023-04-16T05:24:22.958Z,91599.89
2023-04-16T05:26:51.489Z,91591.77
2023-04-16T05:29:19.987Z,91591.92
2023-04-16T05:31:48.172Z,91587.64
2023-04-16T05:34:16.468Z,91588.17
2023-04-16T05:36:44.690Z,91581.58
2023-04-16T05:39:12.952Z,91579.17
2023-04-16T05:41:41.269Z,91579.09
2023-04-16T05:44:09.563Z,91578.95
2023-04-16T05:46:37.810Z,91577.70
2023-04-16T05:49:06.271Z,91569.55
2023-04-16T05:51:34.580Z,91572.50
2023-04-16T05:54:02.936Z,91575.64
2023-04-16T05:56:31.174Z,91575.32
2023-04-16T05:58:59.458Z,91572.48
2023-04-16T06:01:27.690Z,91570.73
2023-04-16T06:03:56.105Z,91574.72
2023-04-16T06:06:24.464Z,91577.99
2023-04-16T06:08:52.704Z,91576.39
2023-04-16T06:11:21.119Z,91584.27
2023-04-16T06:13:49.482Z,91582.98
2023-04-16T06:16:17.683Z,91582.15
2023-04-16T06:18:46.026Z,91578.88
2023-04-16T06:21:14.375Z,91577.43
2023-04-16T06:23:42.532Z,91573.73
2023-04-16T06:26:12.117Z,91572.25
2023-04-16T06:28:40.389Z,91567.05
2023-04-16T06:31:08.740Z,91565.41
2023-04-16T06:33:37.138Z,91568.82
2023-04-16T06:36:05.488Z,91568.27
2023-04-16T06:38:33.706Z,91567.69
2023-04-16T06:41:02.093Z,91561.83
2023-04-16T06:43:31.952Z,91563.33
2023-04-16T06:46:00.400Z,91567.92
2023-04-16T06:48:28.725Z,91572.30
2023-04-16T06:50:57.052Z,91571.10
2023-04-16T06:53:25.689Z,91571.33
2023-04-16T06:55:53.827Z,91568.38
2023-04-16T06:58:22.552Z,91570.91
2023-04-16T07:00:50.908Z,91569.59
2023-04-16T07:03:19.333Z,91569.94
2023-04-16T07:05:47.649Z,91562.77
2023-04-16T07:08:15.906Z,91562.65
2023-04-16T07:10:44.227Z,91561.38
2023-04-16T07:13:12.435Z,91558.09
2023-04-16T07:15:40.913Z,91556.39
2023-04-16T07:18:09.766Z,91557.98
2023-04-16T07:20:38.129Z,91551.27
2023-04-16T07:23:06.478Z,91552.14
2023-04-16T07:25:34.890Z,91555.77
2023-04-16T07:28:03.699Z,91559.75
2023-04-16T07:30:34.708Z,91558.68
2023-04-16T07:33:04.009Z,91554.24
2023-04-16T07:35:32.511Z,91553.46
2023-04-16T07:38:00.865Z,91552.48
2023-04-16T07:40:29.051Z,91551.12
2023-04-16T07:42:57.720Z,91552.59
2023-04-16T07:45:25.938Z,91554.09
2023-04-16T07:47:54.285Z,91551.02
2023-04-16T07:50:22.628Z,91550.16
2023-04-16T07:52:50.944Z,91550.10
2023-04-16T07:55:19.237Z,91545.65
2023-04-16T07:57:47.548Z,91538.61
2023-04-16T08:00:15.870Z,91537.58
2023-04-16T08:02:44.667Z,91533.42
2023-04-16T08:05:13.592Z,91530.54
2023-04-16T08:07:42.029Z,91532.02
2023-04-16T08:10:10.406Z,91529.20
2023-04-16T08:12:38.744Z,91520.42
2023-04-16T08:15:07.562Z,91517.59
2023-04-16T08:17:36.341Z,91515.92
2023-04-16T08:20:04.990Z,91515.29
2023-04-16T08:22:33.715Z,91507.16
2023-04-16T08:25:01.940Z,91504.61
2023-04-16T08:27:30.169Z,91501.66
2023-04-16T08:29:58.525Z,91504.25
2023-04-16T08:32:27.313Z,91504.37
2023-04-16T08:34:55.648Z,91503.16
2023-04-16T08:37:23.942Z,91511.82
2023-04-16T08:39:52.184Z,91512.09
2023-04-16T08:42:41.015Z,91510.02
2023-04-16T08:45:18.848Z,91506.39
2023-04-16T08:47:56.261Z,91505.58
2023-04-16T08:50:25.639Z,91503.38
2023-04-16T08:53:03.703Z,91512.29
2023-04-16T08:55:35.178Z,91510.16
2023-04-16T08:58:08.564Z,91510.02
2023-04-16T09:00:37.985Z,91511.69
2023-04-16T09:03:06.570Z,91514.95
2023-04-16T09:05:35.177Z,91511.34
2023-04-16T09:08:04.698Z,91519.29
2023-04-16T09:10:33.370Z,91518.96
2023-04-16T09:13:01.724Z,91519.62
2023-04-16T09:15:30.213Z,91520.86
2023-04-16T09:17:58.519Z,91523.15
2023-04-16T09:20:26.795Z,91528.33
2023-04-16T09:22:57.111Z,91530.33
2023-04-16T09:25:26.083Z,91533.95
2023-04-16T09:27:54.389Z,91533.97
2023-04-16T09:30:23.714Z,91535.48
2023-04-16T09:32:53.037Z,91535.77
2023-04-16T09:35:21.685Z,91538.85
2023-04-16T09:37:57.243Z,91535.56
2023-04-16T09:40:27.362Z,91538.27
2023-04-16T09:42:58.867Z,91542.14
2023-04-16T09:45:31.476Z,91540.50
2023-04-16T09:48:02.934Z,91539.84
2023-04-16T09:50:31.180Z,91542.30
2023-04-16T09:53:02.503Z,91542.02
2023-04-16T09:55:31.121Z,91541.19
2023-04-16T09:58:01.107Z,91537.04
2023-04-16T10:00:30.740Z,91538.52
2023-04-16T10:03:06.358Z,91536.67
2023-04-16T10:05:35.081Z,91540.34
2023-04-16T10:08:03.440Z,91543.17
2023-04-16T10:10:32.512Z,91548.70
2023-04-16T10:13:00.994Z,91549.67
2023-04-16T10:15:29.481Z,91555.30
2023-04-16T10:17:58.288Z,91558.63
2023-04-16T10:20:26.660Z,91559.48
2023-04-16T10:22:55.132Z,91562.15
2023-04-16T10:25:23.992Z,91562.24
2023-04-16T10:27:52.424Z,91562.65
2023-04-16T10:30:21.935Z,91557.80
2023-04-16T10:32:50.485Z,91551.59
2023-04-16T10:35:21.874Z,91548.42
2023-04-16T10:37:51.719Z,91550.52
2023-04-16T10:40:24.422Z,91549.94
2023-04-16T10:42:56.578Z,91544.79
2023-04-16T10:45:32.790Z,91545.13
2023-04-16T10:48:05.033Z,91546.31
2023-04-16T10:50:37.285Z,91547.07
2023-04-16T10:53:22.881Z,91540.65
2023-04-16T10:56:17.307Z,91538.19
2023-04-16T10:58:45.524Z,91535.77
2023-04-16T11:01:14.486Z,91531.48
2023-04-16T11:03:49.561Z,91520.38
2023-04-16T11:06:24.027Z,91522.56
2023-04-16T11:09:08.213Z,91520.75
2023-04-16T11:11:38.883Z,91514.30
2023-04-16T11:14:08.284Z,91510.38
2023-04-16T11:16:40.859Z,91514.22
2023-04-16T11:19:15.930Z,91516.33
2023-04-16T11:21:45.440Z,91506.63
2023-04-16T11:24:16.789Z,91505.50
2023-04-16T11:26:45.086Z,91503.54
2023-04-16T11:29:16.384Z,91494.30
2023-04-16T11:31:50.494Z,91497.39
2023-04-16T11:34:19.164Z,91495.83
2023-04-16T11:36:48.621Z,91495.46
2023-04-16T11:39:17.071Z,91489.95
2023-04-16T11:41:49.367Z,91495.73
2023-04-16T11:44:17.757Z,91497.75
2023-04-16T11:46:46.226Z,91501.71
2023-04-16T11:49:14.526Z,91500.83
2023-04-16T11:51:44.798Z,91500.55
2023-04-16T11:54:20.141Z,91510.54
2023-04-16T11:56:49.297Z,91510.35
2023-04-16T11:59:18.599Z,91508.64
2023-04-16T12:01:51.547Z,91506.64
2023-04-16T12:04:21.239Z,91504.62
2023-04-16T12:07:08.706Z,91503.14
2023-04-16T12:09:40.157Z,91506.48
2023-04-16T12:12:31.470Z,91501.89
2023-04-16T12:15:03.299Z,91499.70
2023-04-16T12:17:33.157Z,91502.52
2023-04-16T12:20:02.783Z,91501.80
2023-04-16T12:22:32.906Z,91499.67
2023-04-16T12:25:03.347Z,91502.25
2023-04-16T12:28:00.881Z,91505.02
2023-04-16T12:30:31.037Z,91510.60
2023-04-16T12:33:18.176Z,91510.30
2023-04-16T12:35:46.543Z,91512.48
2023-04-16T12:38:15.505Z,91507.05
2023-04-16T12:40:43.958Z,91510.17
2023-04-16T12:43:12.346Z,91513.41
2023-04-16T12:45:40.826Z,91515.92
2023-04-16T12:48:09.043Z,91517.50
2023-04-16T12:50:37.429Z,91512.80
2023-04-16T12:53:05.782Z,91509.52
2023-04-16T12:55:33.906Z,91509.60
2023-04-16T12:58:02.268Z,91508.52
2023-04-16T13:00:30.719Z,91509.34
2023-04-16T13:02:59.112Z,91513.14
2023-04-16T13:05:27.546Z,91507.58
2023-04-16T13:07:55.887Z,91510.05
2023-04-16T13:10:24.297Z,91514.46
2023-04-16T13:12:52.605Z,91512.23
2023-04-16T13:15:20.987Z,91517.70
2023-04-16T13:17:49.252Z,91521.09
2023-04-16T13:20:17.548Z,91515.66
2023-04-16T13:22:45.906Z,91513.90
2023-04-16T13:25:14.215Z,91516.57
2023-04-16T13:27:42.401Z,91520.55
2023-04-16T13:30:11.187Z,91528.89
2023-04-16T13:32:40.748Z,91529.02
2023-04-16T13:35:10.870Z,91532.11
2023-04-16T13:37:39.290Z,91527.05
2023-04-16T13:40:08.009Z,91531.20
2023-04-16T13:42:36.484Z,91530.48
2023-04-16T13:45:04.814Z,91531.19
2023-04-16T13:47:33.023Z,91530.39
2023-04-16T13:50:01.246Z,91530.36
2023-04-16T13:52:29.464Z,91535.38
2023-04-16T13:54:59.592Z,91534.52
2023-04-16T13:57:28.566Z,91537.23
2023-04-16T13:59:57.908Z,91538.04
2023-04-16T14:02:26.854Z,91544.33
2023-04-16T14:04:55.323Z,91539.84
2023-04-16T14:07:27.087Z,91547.70
2023-04-16T14:09:55.603Z,91550.09
2023-04-16T14:12:23.939Z,91552.20
2023-04-16T14:14:52.378Z,91554.08
2023-04-16T14:17:20.716Z,91557.23
2023-04-16T14:19:49.110Z,91556.33
2023-04-16T14:22:18.162Z,91564.11
2023-04-16T14:24:46.658Z,91568.34
2023-04-16T14:27:14.985Z,91568.73
2023-04-16T14:29:44.534Z,91569.60
2023-04-16T14:32:13.008Z,91573.77
2023-04-16T14:34:41.357Z,91574.30
2023-04-16T14:37:09.658Z,91575.44
2023-04-16T14:39:39.329Z,91571.05
2023-04-16T14:42:07.512Z,91568.54
2023-04-16T14:44:35.728Z,91573.00
2023-04-16T14:47:04.144Z,91572.02
2023-04-16T14:49:32.401Z,91573.52
2023-04-16T14:52:02.332Z,91571.67
2023-04-16T14:54:31.367Z,91574.77
2023-04-16T14:56:59.754Z,91566.57
2023-04-16T14:59:28.200Z,91562.26
2023-04-16T15:01:59.373Z,91560.77
2023-04-16T15:04:28.058Z,91558.40
2023-04-16T15:06:59.177Z,91557.02
2023-04-16T15:09:27.722Z,91551.34
2023-04-16T15:11:57.111Z,91552.21
2023-04-16T15:14:25.393Z,91548.45
2023-04-16T15:16:53.714Z,91552.70
2023-04-16T15:19:22.135Z,91550.35
2023-04-16T15:21:50.605Z,91549.95
2023-04-16T15:24:18.793Z,91548.87
2023-04-16T15:26:47.105Z,91545.14
2023-04-16T15:29:15.909Z,91537.73
2023-04-16T15:31:44.133Z,91532.77
2023-04-16T15:34:13.427Z,91530.52
2023-04-16T15:36:42.206Z,91524.43
2023-04-16T15:39:11.100Z,91520.27
2023-04-16T15:41:53.373Z,91509.41
2023-04-16T15:44:25.516Z,91508.06
2023-04-16T15:46:53.947Z,91511.80
2023-04-16T15:49:22.225Z,91511.06
2023-04-16T15:51:50.986Z,91514.01
2023-04-16T15:54:19.350Z,91520.49
2023-04-16T15:56:47.769Z,91521.31
2023-04-16T15:59:16.245Z,91519.47
2023-04-16T16:01:44.616Z,91514.36
2023-04-16T16:04:12.852Z,91517.02
2023-04-16T16:06:41.187Z,91516.38
2023-04-16T16:09:09.632Z,91516.77
2023-04-16T16:11:38.510Z,91512.39
2023-04-16T16:14:06.695Z,91511.95
2023-04-16T16:16:35.280Z,91510.79
2023-04-16T16:19:03.696Z,91509.98
2023-04-16T16:21:32.709Z,91511.43
2023-04-16T16:24:01.124Z,91512.33
2023-04-16T16:26:29.624Z,91517.35
2023-04-16T16:28:57.893Z,91520.16
2023-04-16T16:31:26.276Z,91517.20
2023-04-16T16:33:54.616Z,91522.48
2023-04-16T16:36:22.927Z,91524.64
2023-04-16T16:38:51.410Z,91523.89
2023-04-16T16:41:19.621Z,91523.94
2023-04-16T16:43:47.851Z,91530.67
2023-04-16T16:46:16.380Z,91532.34
2023-04-16T16:48:44.665Z,91537.13
2023-04-16T16:51:13.014Z,91541.20
2023-04-16T16:53:41.189Z,91544.03
2023-04-16T16:56:09.474Z,91546.58
2023-04-16T16:58:37.750Z,91546.02
2023-04-16T17:01:06.151Z,91545.70
2023-04-16T17:03:34.837Z,91545.36
2023-04-16T17:06:03.170Z,91544.45
2023-04-16T17:08:31.488Z,91545.03
2023-04-16T17:11:02.755Z,91546.89
2023-04-16T17:13:32.834Z,91543.20
2023-04-16T17:16:01.225Z,91543.52
2023-04-16T17:18:29.518Z,91546.55
2023-04-16T17:20:57.932Z,91549.30
2023-04-16T17:23:26.390Z,91551.86
2023-04-16T17:25:54.672Z,91553.59
2023-04-16T17:28:22.896Z,91553.37
2023-04-16T17:30:51.613Z,91556.55
2023-04-16T17:33:20.652Z,91557.86
2023-04-16T17:35:49.015Z,91562.45
2023-04-16T17:38:17.353Z,91564.68
2023-04-16T17:40:45.844Z,91563.33
2023-04-16T17:43:14.044Z,91573.17
2023-04-16T17:45:42.410Z,91568.50
2023-04-16T17:48:11.190Z,91571.80
2023-04-16T17:50:39.833Z,91568.05
2023-04-16T17:53:08.191Z,91563.28
2023-04-16T17:55:36.708Z,91568.02
2023-04-16T17:58:04.991Z,91568.42
2023-04-16T18:00:33.581Z,91570.36
2023-04-16T18:03:02.119Z,91569.96
2023-04-16T18:05:30.760Z,91572.73
2023-04-16T18:07:59.174Z,91571.90
2023-04-16T18:10:29.643Z,91573.41
2023-04-16T18:12:57.907Z,91567.45
2023-04-16T18:15:26.173Z,91559.89
2023-04-16T18:17:54.621Z,91551.42
2023-04-16T18:20:24.028Z,91555.69
2023-04-16T18:22:52.331Z,91549.80
2023-04-16T18:25:31.981Z,91543.61
2023-04-16T18:28:04.057Z,91538.64
2023-04-16T18:30:32.669Z,91532.40
2023-04-16T18:33:30.496Z,91534.98
2023-04-16T18:35:50.001Z,91535.34
2023-04-16T18:38:18.261Z,91540.81
2023-04-16T18:40:47.321Z,91541.12
2023-04-16T18:43:16.052Z,91543.48
2023-04-16T18:45:44.335Z,91544.48
2023-04-16T18:48:12.619Z,91541.85
2023-04-16T18:50:41.246Z,91541.05
2023-04-16T18:53:09.517Z,91539.66
2023-04-16T18:55:37.947Z,91537.20
2023-04-16T18:58:06.308Z,91535.48
2023-04-16T19:00:34.581Z,91540.52
2023-04-16T19:03:07.138Z,91539.43
2023-04-16T19:05:35.704Z,91537.95
2023-04-16T19:08:03.990Z,91547.34
2023-04-16T19:10:32.201Z,91547.77
2023-04-16T19:13:00.505Z,91545.63
2023-04-16T19:15:31.560Z,91544.16
2023-04-16T19:18:00.903Z,91540.05
2023-04-16T19:20:29.140Z,91535.23
2023-04-16T19:22:57.496Z,91532.39
2023-04-16T19:25:25.992Z,91533.15
2023-04-16T19:27:56.106Z,91537.45
2023-04-16T19:30:24.520Z,91540.39
2023-04-16T19:32:55.141Z,91538.10
2023-04-16T19:35:24.182Z,91540.29
2023-04-16T19:37:52.646Z,91536.52
2023-04-16T19:40:21.012Z,91536.21
2023-04-16T19:42:49.622Z,91539.54
2023-04-16T19:45:18.563Z,91542.90
2023-04-16T19:47:48.887Z,91543.87
2023-04-16T19:50:17.294Z,91543.25
2023-04-16T19:52:45.669Z,91539.15
2023-04-16T19:55:13.937Z,91540.45
2023-04-16T19:57:42.263Z,91538.13
2023-04-16T20:00:11.959Z,91546.78
2023-04-16T20:02:40.908Z,91545.79
2023-04-16T20:05:09.605Z,91548.05
2023-04-16T20:07:37.744Z,91548.64
2023-04-16T20:10:06.409Z,91547.92
2023-04-16T20:12:34.605Z,91548.04
2023-04-16T20:15:02.843Z,91552.23
2023-04-16T20:17:31.256Z,91554.39
2023-04-16T20:20:01.186Z,91551.45
2023-04-16T20:22:29.496Z,91545.94
2023-04-16T20:24:58.170Z,91544.58
2023-04-16T20:27:26.425Z,91543.30
2023-04-16T20:29:54.675Z,91547.61
2023-04-16T20:32:23.543Z,91554.19
2023-04-16T20:34:52.992Z,91551.61
2023-04-16T20:37:21.768Z,91546.77
2023-04-16T20:39:54.283Z,91550.27
2023-04-16T20:42:22.958Z,91548.87
2023-04-16T20:44:55.876Z,91542.23
2023-04-16T20:47:24.088Z,91542.42
2023-04-16T20:49:53.147Z,91543.41
2023-04-16T20:52:24.429Z,91546.04
2023-04-16T20:54:52.673Z,91541.45
2023-04-16T20:57:21.037Z,91541.06
2023-04-16T20:59:49.507Z,91543.52
2023-04-16T21:02:18.001Z,91544.10
2023-04-16T21:04:46.758Z,91548.17
2023-04-16T21:07:15.676Z,91545.88
2023-04-16T21:09:43.988Z,91549.45
2023-04-16T21:12:12.358Z,91549.81
2023-04-16T21:14:40.643Z,91549.45
2023-04-16T21:17:08.837Z,91545.58
2023-04-16T21:19:37.040Z,91545.41
2023-04-16T21:22:05.379Z,91544.10
2023-04-16T21:24:33.590Z,91546.15
2023-04-16T21:27:01.944Z,91541.34
2023-04-16T21:29:30.761Z,91538.38
2023-04-16T21:31:59.150Z,91537.49
2023-04-16T21:34:27.510Z,91534.81
2023-04-16T21:36:56.081Z,91531.84
2023-04-16T21:39:27.708Z,91529.45
2023-04-16T21:41:56.542Z,91526.11
2023-04-16T21:44:24.779Z,91520.77
2023-04-16T21:46:53.299Z,91515.64
2023-04-16T21:49:21.686Z,91512.58
2023-04-16T21:51:50.476Z,91510.48
2023-04-16T21:54:20.328Z,91512.34
2023-04-16T21:56:48.568Z,91521.45
2023-04-16T21:59:16.834Z,91526.20
2023-04-16T22:01:45.093Z,91527.94
2023-04-16T22:04:13.509Z,91529.86
2023-04-16T22:06:41.808Z,91531.67
2023-04-16T22:09:10.330Z,91532.98
2023-04-16T22:11:38.871Z,91534.11
2023-04-16T22:14:08.900Z,91533.08
2023-04-16T22:16:37.123Z,91532.87
2023-04-16T22:19:05.599Z,91534.06
2023-04-16T22:21:33.821Z,91531.70
2023-04-16T22:24:02.939Z,91529.19
2023-04-16T22:26:31.196Z,91523.58
2023-04-16T22:28:59.500Z,91521.77
2023-04-16T22:31:27.673Z,91519.80
2023-04-16T22:33:56.021Z,91516.58
2023-04-16T22:36:24.165Z,91511.80
2023-04-16T22:38:52.656Z,91510.20
2023-04-16T22:41:21.283Z,91509.14
2023-04-16T22:43:52.310Z,91513.10
2023-04-16T22:46:22.414Z,91509.56
2023-04-16T22:48:51.892Z,91508.64
2023-04-16T22:51:24.365Z,91508.09
2023-04-16T22:53:52.968Z,91506.00
2023-04-16T22:56:21.563Z,91504.23
2023-04-16T22:58:49.863Z,91505.58
2023-04-16T23:01:18.156Z,91506.34
2023-04-16T23:03:46.559Z,91500.50
2023-04-16T23:06:14.911Z,91502.09
2023-04-16T23:08:43.223Z,91499.08
2023-04-16T23:11:11.544Z,91500.45
2023-04-16T23:13:39.856Z,91502.23
2023-04-16T23:16:08.479Z,91499.38
2023-04-16T23:18:37.073Z,91495.47
2023-04-16T23:21:05.412Z,91500.77
2023-04-16T23:23:33.696Z,91501.79
2023-04-16T23:26:03.016Z,91496.38
2023-04-16T23:28:31.283Z,91494.34
2023-04-16T23:30:59.691Z,91494.85
2023-04-16T23:33:27.952Z,91495.00
2023-04-16T23:35:56.633Z,91498.46
2023-04-16T23:38:24.828Z,91494.73
2023-04-16T23:40:53.065Z,91492.52
2023-04-16T23:43:21.332Z,91487.80
2023-04-16T23:45:49.499Z,91488.73
2023-04-16T23:48:17.899Z,91487.85
2023-04-16T23:50:46.280Z,91487.80
2023-04-16T23:53:14.632Z,91483.13
2023-04-16T23:55:42.955Z,91483.33
2023-04-16T23:58:11.621Z,91482.56
